createdAt,value
2019-01-31T00:00:28.911Z,1016.57
2019-01-31T00:01:28.893Z,1016.58
2019-01-31T00:02:28.875Z,1016.57
2019-01-31T00:03:28.858Z,1016.61
2019-01-31T00:04:28.839Z,1016.62
2019-01-31T00:05:28.821Z,1016.59
2019-01-31T00:06:28.804Z,1016.57
2019-01-31T00:07:28.787Z,1016.55
2019-01-31T00:08:28.767Z,1016.55
2019-01-31T00:09:28.753Z,1016.58
2019-01-31T00:10:28.732Z,1016.58
2019-01-31T00:11:28.715Z,1016.61
2019-01-31T00:12:28.698Z,1016.54
2019-01-31T00:13:28.681Z,1016.59
2019-01-31T00:14:28.663Z,1016.58
2019-01-31T00:15:28.643Z,1016.53
2019-01-31T00:16:28.626Z,1016.57
2019-01-31T00:17:28.608Z,1016.54
2019-01-31T00:18:28.591Z,1016.58
2019-01-31T00:19:28.575Z,1016.56
2019-01-31T00:20:28.555Z,1016.57
2019-01-31T00:21:28.537Z,1016.55
2019-01-31T00:22:28.519Z,1016.58
2019-01-31T00:23:28.502Z,1016.58
2019-01-31T00:24:28.485Z,1016.55
2019-01-31T00:25:28.467Z,1016.56
2019-01-31T00:26:28.448Z,1016.55
2019-01-31T00:27:28.431Z,1016.53
2019-01-31T00:28:28.413Z,1016.55
2019-01-31T00:29:28.395Z,1016.55
2019-01-31T00:30:28.376Z,1016.53
2019-01-31T00:31:28.360Z,1016.55
2019-01-31T00:32:28.340Z,1016.57
2019-01-31T00:33:28.322Z,1016.57
2019-01-31T00:34:28.305Z,1016.59
2019-01-31T00:35:28.289Z,1016.56
2019-01-31T00:36:28.271Z,1016.55
2019-01-31T00:37:28.252Z,1016.53
2019-01-31T00:38:28.235Z,1016.53
2019-01-31T00:39:28.217Z,1016.53
2019-01-31T00:40:28.198Z,1016.56
2019-01-31T00:41:28.181Z,1016.53
2019-01-31T00:42:28.163Z,1016.56
2019-01-31T00:43:28.147Z,1016.58
2019-01-31T00:44:28.128Z,1016.56
2019-01-31T00:45:28.110Z,1016.56
2019-01-31T00:46:28.093Z,1016.6
2019-01-31T00:47:28.076Z,1016.56
2019-01-31T00:48:28.057Z,1016.51
2019-01-31T00:49:28.039Z,1016.52
2019-01-31T00:50:28.022Z,1016.49
2019-01-31T00:51:28.002Z,1016.51
2019-01-31T00:52:27.986Z,1016.52
2019-01-31T00:53:27.967Z,1016.51
2019-01-31T00:54:27.950Z,1016.56
2019-01-31T00:55:27.933Z,1016.53
2019-01-31T00:56:27.915Z,1016.48
2019-01-31T00:57:27.897Z,1016.43
2019-01-31T00:58:27.880Z,1016.36
2019-01-31T00:59:27.861Z,1016.35
2019-01-31T01:00:27.844Z,1016.31
2019-01-31T01:01:27.826Z,1016.29
2019-01-31T01:02:27.807Z,1016.24
2019-01-31T01:03:27.790Z,1016.2
2019-01-31T01:04:27.773Z,1016.18
2019-01-31T01:05:27.755Z,1016.17
2019-01-31T01:06:27.737Z,1016.15
2019-01-31T01:07:27.720Z,1016.1
2019-01-31T01:08:27.702Z,1016.15
2019-01-31T01:09:27.690Z,1016.13
2019-01-31T01:10:27.781Z,1016.1
2019-01-31T01:11:27.649Z,1016.09
2019-01-31T01:12:27.632Z,1016.07
2019-01-31T01:13:27.614Z,1016.09
2019-01-31T01:14:27.596Z,1016.06
2019-01-31T01:15:27.579Z,1016.07
2019-01-31T01:16:27.562Z,1016.06
2019-01-31T01:17:27.545Z,1016.06
2019-01-31T01:18:27.527Z,1016.07
2019-01-31T01:19:27.510Z,1016.08
2019-01-31T01:20:27.492Z,1016.07
2019-01-31T01:21:27.473Z,1016.06
2019-01-31T01:22:27.457Z,1016.05
2019-01-31T01:23:27.440Z,1016.05
2019-01-31T01:24:27.422Z,1016.07
2019-01-31T01:25:27.405Z,1016.04
2019-01-31T01:26:27.386Z,1016.09
2019-01-31T01:27:27.371Z,1016.05
2019-01-31T01:28:27.353Z,1016.05
2019-01-31T01:29:27.336Z,1016.08
2019-01-31T01:30:27.322Z,1016.1
2019-01-31T01:31:27.301Z,1016.1
2019-01-31T01:32:27.285Z,1016.13
2019-01-31T01:33:27.265Z,1016.09
2019-01-31T01:34:27.248Z,1016.12
2019-01-31T01:35:27.231Z,1016.08
2019-01-31T01:36:27.216Z,1016.08
2019-01-31T01:37:27.198Z,1016
2019-01-31T01:38:27.181Z,1016
2019-01-31T01:39:27.163Z,1016.04
2019-01-31T01:40:27.146Z,1016.02
2019-01-31T01:41:27.129Z,1016
2019-01-31T01:42:27.112Z,1016.04
2019-01-31T01:43:27.096Z,1015.99
2019-01-31T01:44:27.077Z,1015.99
2019-01-31T01:45:27.059Z,1015.96
2019-01-31T01:46:27.042Z,1015.97
2019-01-31T01:47:27.026Z,1015.99
2019-01-31T01:48:27.009Z,1015.97
2019-01-31T01:49:26.991Z,1015.97
2019-01-31T01:50:26.974Z,1015.92
2019-01-31T01:51:26.956Z,1015.9
2019-01-31T01:52:26.940Z,1015.89
2019-01-31T01:53:26.925Z,1015.88
2019-01-31T01:54:26.906Z,1015.86
2019-01-31T01:55:26.887Z,1015.89
2019-01-31T01:56:26.882Z,1015.92
2019-01-31T01:57:26.854Z,1015.91
2019-01-31T01:58:26.836Z,1015.9
2019-01-31T01:59:26.820Z,1015.9
2019-01-31T02:00:26.804Z,1015.9
2019-01-31T02:01:26.818Z,1015.88
2019-01-31T02:02:26.768Z,1015.88
2019-01-31T02:03:26.752Z,1015.88
2019-01-31T02:04:26.735Z,1015.8
2019-01-31T02:05:26.725Z,1015.81
2019-01-31T02:06:26.701Z,1015.78
2019-01-31T02:07:26.684Z,1015.79
2019-01-31T02:08:26.666Z,1015.77
2019-01-31T02:09:30.146Z,1015.75
2019-01-31T02:10:26.631Z,1015.77
2019-01-31T02:11:26.616Z,1015.77
2019-01-31T02:12:26.598Z,1015.75
2019-01-31T02:13:26.584Z,1015.78
2019-01-31T02:14:26.563Z,1015.79
2019-01-31T02:15:26.554Z,1015.81
2019-01-31T02:16:26.531Z,1015.8
2019-01-31T02:17:26.515Z,1015.79
2019-01-31T02:18:26.498Z,1015.8
2019-01-31T02:19:26.481Z,1015.78
2019-01-31T02:20:26.463Z,1015.77
2019-01-31T02:21:26.447Z,1015.8
2019-01-31T02:22:26.430Z,1015.79
2019-01-31T02:23:26.412Z,1015.83
2019-01-31T02:24:26.396Z,1015.75
2019-01-31T02:25:26.390Z,1015.8
2019-01-31T02:26:26.361Z,1015.8
2019-01-31T02:27:26.344Z,1015.81
2019-01-31T02:28:26.328Z,1015.85
2019-01-31T02:29:26.311Z,1015.85
2019-01-31T02:30:26.296Z,1015.86
2019-01-31T02:31:26.278Z,1015.9
2019-01-31T02:32:26.259Z,1015.88
2019-01-31T02:33:26.245Z,1015.88
2019-01-31T02:34:26.226Z,1015.86
2019-01-31T02:35:26.209Z,1015.82
2019-01-31T02:36:26.192Z,1015.78
2019-01-31T02:37:26.174Z,1015.82
2019-01-31T02:38:26.159Z,1015.79
2019-01-31T02:39:26.141Z,1015.8
2019-01-31T02:40:26.124Z,1015.78
2019-01-31T02:41:26.107Z,1015.77
2019-01-31T02:42:26.090Z,1015.82
2019-01-31T02:43:26.072Z,1015.81
2019-01-31T02:44:26.064Z,1015.8
2019-01-31T02:45:26.037Z,1015.77
2019-01-31T02:46:26.021Z,1015.78
2019-01-31T02:47:26.005Z,1015.75
2019-01-31T02:48:25.988Z,1015.72
2019-01-31T02:49:25.973Z,1015.71
2019-01-31T02:50:25.954Z,1015.7
2019-01-31T02:51:25.937Z,1015.71
2019-01-31T02:52:25.920Z,1015.72
2019-01-31T02:53:25.904Z,1015.68
2019-01-31T02:54:25.889Z,1015.7
2019-01-31T02:55:25.869Z,1015.66
2019-01-31T02:56:26.053Z,1015.67
2019-01-31T02:57:25.836Z,1015.69
2019-01-31T02:58:25.818Z,1015.67
2019-01-31T02:59:25.801Z,1015.7
2019-01-31T03:00:25.783Z,1015.69
2019-01-31T03:01:25.769Z,1015.74
2019-01-31T03:02:25.750Z,1015.74
2019-01-31T03:03:25.761Z,1015.71
2019-01-31T03:04:25.732Z,1015.76
2019-01-31T03:05:25.700Z,1015.7
2019-01-31T03:06:25.683Z,1015.74
2019-01-31T03:07:25.664Z,1015.75
2019-01-31T03:08:25.647Z,1015.76
2019-01-31T03:09:25.631Z,1015.75
2019-01-31T03:10:25.613Z,1015.79
2019-01-31T03:11:25.596Z,1015.81
2019-01-31T03:12:25.578Z,1015.83
2019-01-31T03:13:25.564Z,1015.81
2019-01-31T03:14:25.545Z,1015.79
2019-01-31T03:15:25.528Z,1015.82
2019-01-31T03:16:25.515Z,1015.81
2019-01-31T03:17:25.495Z,1015.79
2019-01-31T03:18:25.478Z,1015.85
2019-01-31T03:19:25.460Z,1015.85
2019-01-31T03:20:25.445Z,1015.85
2019-01-31T03:21:25.426Z,1015.87
2019-01-31T03:22:25.409Z,1015.86
2019-01-31T03:23:25.392Z,1015.86
2019-01-31T03:24:25.376Z,1015.85
2019-01-31T03:25:25.360Z,1015.86
2019-01-31T03:26:25.340Z,1015.85
2019-01-31T03:27:25.329Z,1015.88
2019-01-31T03:28:25.307Z,1015.88
2019-01-31T03:29:25.289Z,1015.92
2019-01-31T03:30:25.442Z,1015.91
2019-01-31T03:31:25.257Z,1015.93
2019-01-31T03:32:25.240Z,1015.92
2019-01-31T03:33:25.230Z,1015.91
2019-01-31T03:34:25.205Z,1015.91
2019-01-31T03:35:25.188Z,1015.95
2019-01-31T03:36:25.169Z,1015.94
2019-01-31T03:37:25.153Z,1015.94
2019-01-31T03:38:25.137Z,1015.98
2019-01-31T03:39:25.120Z,1015.96
2019-01-31T03:40:25.102Z,1015.99
2019-01-31T03:41:25.085Z,1015.96
2019-01-31T03:42:25.067Z,1015.98
2019-01-31T03:43:25.051Z,1015.98
2019-01-31T03:44:25.035Z,1016
2019-01-31T03:45:25.016Z,1016.01
2019-01-31T03:46:24.999Z,1016.01
2019-01-31T03:47:24.996Z,1015.98
2019-01-31T03:48:24.964Z,1016.05
2019-01-31T03:49:24.948Z,1016.05
2019-01-31T03:50:24.931Z,1016.03
2019-01-31T03:51:24.998Z,1016.07
2019-01-31T03:52:24.898Z,1016.03
2019-01-31T03:53:24.880Z,1016.02
2019-01-31T03:54:24.863Z,1016.02
2019-01-31T03:55:24.858Z,1016.05
2019-01-31T03:56:24.828Z,1016.07
2019-01-31T03:57:24.811Z,1016.07
2019-01-31T03:58:24.793Z,1016.02
2019-01-31T03:59:24.776Z,1016.03
2019-01-31T04:00:24.761Z,1016.02
2019-01-31T04:01:24.741Z,1016.03
2019-01-31T04:02:24.724Z,1015.98
2019-01-31T04:03:24.710Z,1015.98
2019-01-31T04:04:24.691Z,1015.95
2019-01-31T04:05:24.674Z,1015.91
2019-01-31T04:06:24.656Z,1015.88
2019-01-31T04:07:24.638Z,1015.89
2019-01-31T04:08:24.623Z,1015.88
2019-01-31T04:09:24.604Z,1015.91
2019-01-31T04:10:24.588Z,1015.88
2019-01-31T04:11:24.583Z,1015.92
2019-01-31T04:12:24.553Z,1015.9
2019-01-31T04:13:24.534Z,1015.86
2019-01-31T04:14:27.248Z,1015.84
2019-01-31T04:15:24.502Z,1015.82
2019-01-31T04:16:24.484Z,1015.81
2019-01-31T04:17:24.467Z,1015.8
2019-01-31T04:18:24.451Z,1015.84
2019-01-31T04:19:24.438Z,1015.84
2019-01-31T04:20:24.416Z,1015.77
2019-01-31T04:21:24.399Z,1015.79
2019-01-31T04:22:24.388Z,1015.75
2019-01-31T04:23:24.363Z,1015.75
2019-01-31T04:24:24.348Z,1015.76
2019-01-31T04:25:24.332Z,1015.76
2019-01-31T04:26:24.315Z,1015.78
2019-01-31T04:27:24.302Z,1015.77
2019-01-31T04:28:24.281Z,1015.79
2019-01-31T04:29:24.264Z,1015.77
2019-01-31T04:30:24.369Z,1015.75
2019-01-31T04:31:24.230Z,1015.72
2019-01-31T04:32:24.212Z,1015.71
2019-01-31T04:33:24.198Z,1015.7
2019-01-31T04:34:24.177Z,1015.71
2019-01-31T04:35:24.162Z,1015.67
2019-01-31T04:36:24.145Z,1015.7
2019-01-31T04:37:24.131Z,1015.77
2019-01-31T04:38:24.112Z,1015.81
2019-01-31T04:39:24.094Z,1015.76
2019-01-31T04:40:30.776Z,1015.7
2019-01-31T04:41:24.068Z,1015.74
2019-01-31T04:42:24.043Z,1015.71
2019-01-31T04:43:24.027Z,1015.71
2019-01-31T04:44:24.123Z,1015.7
2019-01-31T04:45:23.993Z,1015.67
2019-01-31T04:46:23.979Z,1015.71
2019-01-31T04:47:23.960Z,1015.7
2019-01-31T04:48:23.943Z,1015.75
2019-01-31T04:49:23.929Z,1015.81
2019-01-31T04:50:23.910Z,1015.74
2019-01-31T04:51:23.893Z,1015.72
2019-01-31T04:52:23.876Z,1015.7
2019-01-31T04:53:23.858Z,1015.68
2019-01-31T04:54:23.842Z,1015.67
2019-01-31T04:55:23.826Z,1015.66
2019-01-31T04:56:23.809Z,1015.67
2019-01-31T04:57:23.796Z,1015.67
2019-01-31T04:58:23.775Z,1015.65
2019-01-31T04:59:23.760Z,1015.64
2019-01-31T05:00:23.744Z,1015.63
2019-01-31T05:01:26.447Z,1015.65
2019-01-31T05:02:23.710Z,1015.64
2019-01-31T05:03:23.692Z,1015.67
2019-01-31T05:04:23.675Z,1015.66
2019-01-31T05:05:23.664Z,1015.67
2019-01-31T05:06:23.641Z,1015.64
2019-01-31T05:07:23.625Z,1015.65
2019-01-31T05:08:23.608Z,1015.65
2019-01-31T05:09:23.592Z,1015.64
2019-01-31T05:10:23.575Z,1015.63
2019-01-31T05:11:23.559Z,1015.63
2019-01-31T05:12:23.544Z,1015.61
2019-01-31T05:13:23.526Z,1015.64
2019-01-31T05:14:23.509Z,1015.64
2019-01-31T05:15:23.492Z,1015.67
2019-01-31T05:16:23.474Z,1015.65
2019-01-31T05:17:23.458Z,1015.68
2019-01-31T05:18:23.440Z,1015.68
2019-01-31T05:19:23.426Z,1015.67
2019-01-31T05:20:23.409Z,1015.62
2019-01-31T05:21:23.394Z,1015.66
2019-01-31T05:22:23.375Z,1015.65
2019-01-31T05:23:23.358Z,1015.68
2019-01-31T05:24:23.343Z,1015.67
2019-01-31T05:25:23.327Z,1015.67
2019-01-31T05:26:23.309Z,1015.67
2019-01-31T05:27:23.294Z,1015.67
2019-01-31T05:28:23.280Z,1015.71
2019-01-31T05:29:23.261Z,1015.68
2019-01-31T05:30:23.248Z,1015.72
2019-01-31T05:31:23.228Z,1015.71
2019-01-31T05:32:23.212Z,1015.68
2019-01-31T05:33:23.193Z,1015.73
2019-01-31T05:34:23.181Z,1015.73
2019-01-31T05:35:23.162Z,1015.74
2019-01-31T05:36:23.145Z,1015.79
2019-01-31T05:37:23.128Z,1015.83
2019-01-31T05:38:23.112Z,1015.82
2019-01-31T05:39:23.101Z,1015.87
2019-01-31T05:40:23.079Z,1015.95
2019-01-31T05:41:23.063Z,1015.92
2019-01-31T05:42:23.048Z,1015.97
2019-01-31T05:43:23.030Z,1016.01
2019-01-31T05:44:23.016Z,1016.06
2019-01-31T05:45:22.997Z,1016.09
2019-01-31T05:46:23.074Z,1016.1
2019-01-31T05:47:22.963Z,1016.09
2019-01-31T05:48:22.946Z,1016.13
2019-01-31T05:49:22.932Z,1016.15
2019-01-31T05:50:22.916Z,1016.18
2019-01-31T05:51:22.898Z,1016.25
2019-01-31T05:52:22.881Z,1016.23
2019-01-31T05:53:22.867Z,1016.22
2019-01-31T05:54:22.848Z,1016.22
2019-01-31T05:55:22.829Z,1016.22
2019-01-31T05:56:22.813Z,1016.21
2019-01-31T05:57:22.796Z,1016.2
2019-01-31T05:58:22.780Z,1016.17
2019-01-31T05:59:22.765Z,1016.17
2019-01-31T06:00:22.748Z,1016.17
2019-01-31T06:01:22.740Z,1016.19
2019-01-31T06:02:22.714Z,1016.23
2019-01-31T06:03:22.697Z,1016.24
2019-01-31T06:04:22.680Z,1016.24
2019-01-31T06:05:22.668Z,1016.26
2019-01-31T06:06:22.647Z,1016.26
2019-01-31T06:07:22.629Z,1016.26
2019-01-31T06:08:22.613Z,1016.27
2019-01-31T06:09:22.596Z,1016.3
2019-01-31T06:10:22.579Z,1016.31
2019-01-31T06:11:22.564Z,1016.33
2019-01-31T06:12:22.551Z,1016.28
2019-01-31T06:13:22.530Z,1016.31
2019-01-31T06:14:22.514Z,1016.37
2019-01-31T06:15:22.498Z,1016.37
2019-01-31T06:16:22.480Z,1016.42
2019-01-31T06:17:22.462Z,1016.4
2019-01-31T06:18:22.445Z,1016.38
2019-01-31T06:19:22.430Z,1016.4
2019-01-31T06:20:22.412Z,1016.41
2019-01-31T06:21:22.396Z,1016.44
2019-01-31T06:22:24.946Z,1016.45
2019-01-31T06:23:22.362Z,1016.45
2019-01-31T06:24:22.344Z,1016.49
2019-01-31T06:25:22.328Z,1016.48
2019-01-31T06:26:22.311Z,1016.46
2019-01-31T06:27:22.295Z,1016.48
2019-01-31T06:28:22.280Z,1016.46
2019-01-31T06:29:22.268Z,1016.45
2019-01-31T06:30:22.243Z,1016.44
2019-01-31T06:31:22.228Z,1016.45
2019-01-31T06:32:22.211Z,1016.47
2019-01-31T06:33:22.194Z,1016.46
2019-01-31T06:34:22.178Z,1016.46
2019-01-31T06:35:22.159Z,1016.45
2019-01-31T06:36:22.142Z,1016.43
2019-01-31T06:37:22.125Z,1016.49
2019-01-31T06:38:22.108Z,1016.46
2019-01-31T06:39:22.092Z,1016.46
2019-01-31T06:40:22.075Z,1016.47
2019-01-31T06:41:22.059Z,1016.46
2019-01-31T06:42:22.041Z,1016.52
2019-01-31T06:43:22.025Z,1016.48
2019-01-31T06:44:22.008Z,1016.51
2019-01-31T06:45:21.992Z,1016.55
2019-01-31T06:46:21.975Z,1016.53
2019-01-31T06:47:21.956Z,1016.53
2019-01-31T06:48:21.940Z,1016.54
2019-01-31T06:49:21.923Z,1016.53
2019-01-31T06:50:21.905Z,1016.54
2019-01-31T06:51:21.890Z,1016.57
2019-01-31T06:52:21.873Z,1016.59
2019-01-31T06:53:21.856Z,1016.61
2019-01-31T06:54:21.839Z,1016.66
2019-01-31T06:55:21.821Z,1016.65
2019-01-31T06:56:21.806Z,1016.68
2019-01-31T06:57:21.788Z,1016.69
2019-01-31T06:58:21.772Z,1016.7
2019-01-31T06:59:21.759Z,1016.72
2019-01-31T07:00:21.737Z,1016.72
2019-01-31T07:01:21.720Z,1016.73
2019-01-31T07:02:21.703Z,1016.73
2019-01-31T07:03:21.688Z,1016.73
2019-01-31T07:04:21.673Z,1016.7
2019-01-31T07:05:21.655Z,1016.67
2019-01-31T07:06:21.638Z,1016.69
2019-01-31T07:07:21.620Z,1016.63
2019-01-31T07:08:21.603Z,1016.59
2019-01-31T07:09:21.587Z,1016.57
2019-01-31T07:10:21.569Z,1016.53
2019-01-31T07:11:29.552Z,1016.53
2019-01-31T07:12:21.535Z,1016.47
2019-01-31T07:13:21.518Z,1016.42
2019-01-31T07:14:21.502Z,1016.4
2019-01-31T07:15:21.486Z,1016.35
2019-01-31T07:16:21.469Z,1016.3
2019-01-31T07:17:21.454Z,1016.37
2019-01-31T07:18:21.436Z,1016.32
2019-01-31T07:19:21.417Z,1016.33
2019-01-31T07:20:21.403Z,1016.29
2019-01-31T07:21:21.386Z,1016.32
2019-01-31T07:22:21.368Z,1016.33
2019-01-31T07:23:21.351Z,1016.3
2019-01-31T07:24:21.336Z,1016.3
2019-01-31T07:25:21.318Z,1016.24
2019-01-31T07:26:21.302Z,1016.27
2019-01-31T07:27:21.285Z,1016.24
2019-01-31T07:28:21.272Z,1016.15
2019-01-31T07:29:21.253Z,1016.13
2019-01-31T07:30:21.236Z,1016.12
2019-01-31T07:31:21.218Z,1016.06
2019-01-31T07:32:21.203Z,1016.07
2019-01-31T07:33:21.185Z,1016.09
2019-01-31T07:34:21.189Z,1016.08
2019-01-31T07:35:21.158Z,1016.03
2019-01-31T07:36:21.138Z,1016.01
2019-01-31T07:37:21.123Z,1016.05
2019-01-31T07:38:21.105Z,1016.03
2019-01-31T07:39:21.089Z,1015.99
2019-01-31T07:40:21.073Z,1016.01
2019-01-31T07:41:21.056Z,1015.98
2019-01-31T07:42:21.042Z,1015.97
2019-01-31T07:43:21.023Z,1015.95
2019-01-31T07:44:21.007Z,1015.91
2019-01-31T07:45:20.991Z,1015.91
2019-01-31T07:46:20.974Z,1015.93
2019-01-31T07:47:20.959Z,1015.9
2019-01-31T07:48:20.942Z,1015.89
2019-01-31T07:49:20.926Z,1015.85
2019-01-31T07:50:20.913Z,1015.85
2019-01-31T07:51:20.895Z,1015.81
2019-01-31T07:52:20.878Z,1015.79
2019-01-31T07:53:20.864Z,1015.77
2019-01-31T07:54:20.847Z,1015.76
2019-01-31T07:55:20.830Z,1015.69
2019-01-31T07:56:20.815Z,1015.63
2019-01-31T07:57:20.798Z,1015.59
2019-01-31T07:58:20.792Z,1015.58
2019-01-31T07:59:20.767Z,1015.58
2019-01-31T08:00:20.752Z,1015.52
2019-01-31T08:01:20.739Z,1015.55
2019-01-31T08:02:20.725Z,1015.57
2019-01-31T08:03:20.704Z,1015.51
2019-01-31T08:04:20.689Z,1015.55
2019-01-31T08:05:20.676Z,1015.55
2019-01-31T08:06:20.656Z,1015.48
2019-01-31T08:07:20.643Z,1015.4
2019-01-31T08:08:20.627Z,1015.39
2019-01-31T08:09:20.611Z,1015.34
2019-01-31T08:10:20.600Z,1015.35
2019-01-31T08:11:20.582Z,1015.32
2019-01-31T08:12:20.563Z,1015.35
2019-01-31T08:13:20.550Z,1015.37
2019-01-31T08:14:20.533Z,1015.34
2019-01-31T08:15:20.520Z,1015.35
2019-01-31T08:16:20.504Z,1015.39
2019-01-31T08:17:20.487Z,1015.37
2019-01-31T08:18:20.471Z,1015.36
2019-01-31T08:19:20.458Z,1015.36
2019-01-31T08:20:20.442Z,1015.36
2019-01-31T08:21:20.426Z,1015.42
2019-01-31T08:22:20.411Z,1015.39
2019-01-31T08:23:20.395Z,1015.4
2019-01-31T08:24:20.381Z,1015.44
2019-01-31T08:25:20.366Z,1015.47
2019-01-31T08:26:20.350Z,1015.48
2019-01-31T08:27:20.335Z,1015.47
2019-01-31T08:28:20.319Z,1015.46
2019-01-31T08:29:20.305Z,1015.43
2019-01-31T08:30:20.292Z,1015.45
2019-01-31T08:31:20.275Z,1015.42
2019-01-31T08:32:20.260Z,1015.42
2019-01-31T08:33:20.246Z,1015.42
2019-01-31T08:34:20.230Z,1015.38
2019-01-31T08:35:20.214Z,1015.36
2019-01-31T08:36:20.200Z,1015.39
2019-01-31T08:37:20.185Z,1015.37
2019-01-31T08:38:20.171Z,1015.33
2019-01-31T08:39:20.156Z,1015.3
2019-01-31T08:40:20.141Z,1015.36
2019-01-31T08:41:20.125Z,1015.3
2019-01-31T08:42:20.110Z,1015.3
2019-01-31T08:43:20.597Z,1015.24
2019-01-31T08:44:20.085Z,1015.2
2019-01-31T08:45:20.069Z,1015.19
2019-01-31T08:46:20.051Z,1015.16
2019-01-31T08:47:20.036Z,1015.12
2019-01-31T08:48:20.025Z,1015
2019-01-31T08:49:20.006Z,1014.93
2019-01-31T08:50:19.991Z,1014.89
2019-01-31T08:51:19.977Z,1014.85
2019-01-31T08:52:19.962Z,1014.75
2019-01-31T08:53:19.950Z,1014.69
2019-01-31T08:54:19.933Z,1014.64
2019-01-31T08:55:19.922Z,1014.65
2019-01-31T08:56:19.905Z,1014.58
2019-01-31T08:57:19.890Z,1014.59
2019-01-31T08:58:19.876Z,1014.61
2019-01-31T08:59:19.860Z,1014.63
2019-01-31T09:00:19.848Z,1014.61
2019-01-31T09:01:19.831Z,1014.59
2019-01-31T09:02:19.818Z,1014.58
2019-01-31T09:03:19.825Z,1014.6
2019-01-31T09:04:19.789Z,1014.53
2019-01-31T09:05:19.774Z,1014.55
2019-01-31T09:06:19.761Z,1014.49
2019-01-31T09:07:19.747Z,1014.51
2019-01-31T09:08:19.738Z,1014.5
2019-01-31T09:09:19.719Z,1014.5
2019-01-31T09:10:19.707Z,1014.5
2019-01-31T09:11:19.690Z,1014.48
2019-01-31T09:12:19.676Z,1014.43
2019-01-31T09:13:19.664Z,1014.45
2019-01-31T09:14:19.649Z,1014.46
2019-01-31T09:15:19.636Z,1014.47
2019-01-31T09:16:19.621Z,1014.44
2019-01-31T09:17:19.607Z,1014.42
2019-01-31T09:18:19.593Z,1014.36
2019-01-31T09:19:19.580Z,1014.33
2019-01-31T09:20:19.566Z,1014.37
2019-01-31T09:21:19.553Z,1014.32
2019-01-31T09:22:19.539Z,1014.34
2019-01-31T09:23:19.524Z,1014.3
2019-01-31T09:24:19.588Z,1014.33
2019-01-31T09:25:19.499Z,1014.28
2019-01-31T09:26:19.484Z,1014.29
2019-01-31T09:27:19.471Z,1014.28
2019-01-31T09:28:19.461Z,1014.29
2019-01-31T09:29:19.445Z,1014.28
2019-01-31T09:30:19.611Z,1014.29
2019-01-31T09:31:19.418Z,1014.21
2019-01-31T09:32:19.404Z,1014.2
2019-01-31T09:33:19.392Z,1014.14
2019-01-31T09:34:19.377Z,1014.12
2019-01-31T09:35:19.363Z,1014.11
2019-01-31T09:36:19.350Z,1014.08
2019-01-31T09:37:19.337Z,1014.05
2019-01-31T09:38:19.325Z,1014.05
2019-01-31T09:39:19.312Z,1014.04
2019-01-31T09:40:19.299Z,1014.06
2019-01-31T09:41:19.286Z,1014.06
2019-01-31T09:42:26.232Z,1014.08
2019-01-31T09:43:19.328Z,1014.08
2019-01-31T09:44:19.246Z,1014.03
2019-01-31T09:45:19.233Z,1014.03
2019-01-31T09:46:19.219Z,1014.01
2019-01-31T09:47:19.208Z,1014.04
2019-01-31T09:48:19.195Z,1014
2019-01-31T09:49:19.181Z,1014.07
2019-01-31T09:50:19.168Z,1014.06
2019-01-31T09:51:19.155Z,1014.07
2019-01-31T09:52:19.144Z,1014.11
2019-01-31T09:53:19.128Z,1014.13
2019-01-31T09:54:19.116Z,1014.12
2019-01-31T09:55:19.104Z,1014.15
2019-01-31T09:56:19.090Z,1014.18
2019-01-31T09:57:19.077Z,1014.19
2019-01-31T09:58:19.065Z,1014.2
2019-01-31T09:59:19.054Z,1014.24
2019-01-31T10:00:26.993Z,1014.28
2019-01-31T10:01:19.028Z,1014.3
2019-01-31T10:02:19.015Z,1014.31
2019-01-31T10:03:19.001Z,1014.33
2019-01-31T10:04:18.988Z,1014.24
2019-01-31T10:05:19.092Z,1014.29
2019-01-31T10:06:18.964Z,1014.27
2019-01-31T10:07:18.950Z,1014.24
2019-01-31T10:08:18.937Z,1014.19
2019-01-31T10:09:18.924Z,1014.17
2019-01-31T10:10:19.018Z,1014.18
2019-01-31T10:11:19.005Z,1014.11
2019-01-31T10:12:18.888Z,1014.09
2019-01-31T10:13:18.981Z,1014.06
2019-01-31T10:14:18.871Z,1014
2019-01-31T10:15:18.885Z,1013.99
2019-01-31T10:16:18.850Z,1014
2019-01-31T10:17:18.829Z,1013.97
2019-01-31T10:18:18.810Z,1013.95
2019-01-31T10:19:19.013Z,1013.97
2019-01-31T10:20:20.323Z,1013.91
2019-01-31T10:21:18.787Z,1013.86
2019-01-31T10:22:19.072Z,1013.84
2019-01-31T10:23:18.778Z,1013.79
2019-01-31T10:24:18.791Z,1013.76
2019-01-31T10:25:18.724Z,1013.67
2019-01-31T10:26:18.711Z,1013.69
2019-01-31T10:27:18.698Z,1013.64
2019-01-31T10:28:18.685Z,1013.64
2019-01-31T10:29:18.672Z,1013.63
2019-01-31T10:30:18.662Z,1013.61
2019-01-31T10:31:18.649Z,1013.66
2019-01-31T10:32:18.635Z,1013.7
2019-01-31T10:33:18.622Z,1013.76
2019-01-31T10:34:18.611Z,1013.75
2019-01-31T10:35:18.599Z,1013.8
2019-01-31T10:36:18.588Z,1013.81
2019-01-31T10:37:18.573Z,1013.8
2019-01-31T10:38:18.562Z,1013.8
2019-01-31T10:39:18.550Z,1013.84
2019-01-31T10:40:18.537Z,1013.84
2019-01-31T10:41:18.524Z,1013.82
2019-01-31T10:42:18.515Z,1013.84
2019-01-31T10:43:18.507Z,1013.83
2019-01-31T10:44:18.487Z,1013.83
2019-01-31T10:45:18.475Z,1013.83
2019-01-31T10:46:18.462Z,1013.83
2019-01-31T10:47:18.449Z,1013.83
2019-01-31T10:48:18.437Z,1013.86
2019-01-31T10:49:18.426Z,1013.88
2019-01-31T10:50:18.413Z,1013.9
2019-01-31T10:51:18.400Z,1013.92
2019-01-31T10:52:18.388Z,1013.91
2019-01-31T10:53:18.375Z,1013.95
2019-01-31T10:54:18.362Z,1013.96
2019-01-31T10:55:18.351Z,1013.97
2019-01-31T10:56:18.339Z,1014
2019-01-31T10:57:18.442Z,1014.06
2019-01-31T10:58:18.314Z,1014.1
2019-01-31T10:59:18.302Z,1014.08
2019-01-31T11:00:18.289Z,1014.09
2019-01-31T11:01:18.286Z,1014.1
2019-01-31T11:02:18.288Z,1014.12
2019-01-31T11:03:18.251Z,1014.1
2019-01-31T11:04:18.245Z,1014.11
2019-01-31T11:05:18.225Z,1014.09
2019-01-31T11:06:18.213Z,1014.11
2019-01-31T11:07:18.201Z,1014.15
2019-01-31T11:08:18.189Z,1014.12
2019-01-31T11:09:18.175Z,1014.09
2019-01-31T11:10:18.180Z,1014.1
2019-01-31T11:11:18.149Z,1014.13
2019-01-31T11:12:18.138Z,1014.12
2019-01-31T11:13:18.130Z,1014.12
2019-01-31T11:14:18.112Z,1014.11
2019-01-31T11:15:18.098Z,1014.13
2019-01-31T11:16:18.084Z,1014.13
2019-01-31T11:17:18.072Z,1014.14
2019-01-31T11:18:18.060Z,1014.13
2019-01-31T11:19:18.049Z,1014.16
2019-01-31T11:20:18.035Z,1014.14
2019-01-31T11:21:18.023Z,1014.15
2019-01-31T11:22:18.010Z,1014.12
2019-01-31T11:23:17.996Z,1014.14
2019-01-31T11:24:17.983Z,1014.16
2019-01-31T11:25:17.970Z,1014.18
2019-01-31T11:26:17.957Z,1014.23
2019-01-31T11:27:17.946Z,1014.22
2019-01-31T11:28:17.933Z,1014.26
2019-01-31T11:29:17.920Z,1014.3
2019-01-31T11:30:17.912Z,1014.31
2019-01-31T11:31:17.892Z,1014.3
2019-01-31T11:32:17.879Z,1014.27
2019-01-31T11:33:17.867Z,1014.27
2019-01-31T11:34:17.857Z,1014.25
2019-01-31T11:35:17.842Z,1014.29
2019-01-31T11:36:17.829Z,1014.23
2019-01-31T11:37:17.815Z,1014.21
2019-01-31T11:38:17.801Z,1014.21
2019-01-31T11:39:17.790Z,1014.25
2019-01-31T11:40:17.779Z,1014.17
2019-01-31T11:41:17.766Z,1014.15
2019-01-31T11:42:17.752Z,1014.16
2019-01-31T11:43:17.739Z,1014.12
2019-01-31T11:44:17.731Z,1014.09
2019-01-31T11:45:17.730Z,1014.1
2019-01-31T11:46:17.699Z,1014.09
2019-01-31T11:47:17.687Z,1014.09
2019-01-31T11:48:17.675Z,1014.07
2019-01-31T11:49:17.662Z,1014.04
2019-01-31T11:50:17.647Z,1014.03
2019-01-31T11:51:17.636Z,1014
2019-01-31T11:52:17.624Z,1013.95
2019-01-31T11:53:17.611Z,1013.97
2019-01-31T11:54:17.597Z,1013.95
2019-01-31T11:55:17.584Z,1013.97
2019-01-31T11:56:17.570Z,1013.95
2019-01-31T11:57:17.558Z,1013.94
2019-01-31T11:58:17.546Z,1013.94
2019-01-31T11:59:17.534Z,1013.93
2019-01-31T12:00:17.520Z,1013.86
2019-01-31T12:01:17.507Z,1013.79
2019-01-31T12:02:17.497Z,1013.83
2019-01-31T12:03:17.482Z,1013.84
2019-01-31T12:04:17.471Z,1013.83
2019-01-31T12:05:17.456Z,1013.83
2019-01-31T12:06:17.444Z,1013.85
2019-01-31T12:07:17.431Z,1013.8
2019-01-31T12:08:17.418Z,1013.83